createdAt,value
2022-10-31T00:01:17.465Z,102069.48
2022-10-31T00:03:45.340Z,102075.20
2022-10-31T00:06:13.096Z,102069.18
2022-10-31T00:08:40.991Z,102074.48
2022-10-31T00:11:12.248Z,102067.94
2022-10-31T00:13:40.130Z,102066.56
2022-10-31T00:16:09.319Z,102070.26
2022-10-31T00:18:37.171Z,102069.93
2022-10-31T00:21:05.912Z,102068.76
2022-10-31T00:23:33.793Z,102074.67
2022-10-31T00:26:05.253Z,102072.55
2022-10-31T00:28:33.934Z,102074.73
2022-10-31T00:31:05.653Z,102071.89
2022-10-31T00:33:35.414Z,102070.75
2022-10-31T00:36:03.339Z,102058.95
2022-10-31T00:38:31.202Z,102060.97
2022-10-31T00:40:59.014Z,102067.64
2022-10-31T00:43:26.887Z,102070.03
2022-10-31T00:45:54.640Z,102062.09
2022-10-31T00:48:22.566Z,102062.22
2022-10-31T00:50:50.483Z,102056.82
2022-10-31T00:53:18.231Z,102063.85
2022-10-31T00:55:46.097Z,102062.77
2022-10-31T01:00:44.588Z,102057.90
2022-10-31T01:03:14.636Z,102050.70
2022-10-31T01:05:42.373Z,102059.99
2022-10-31T01:08:10.210Z,102055.94
2022-10-31T01:10:38.136Z,102059.99
2022-10-31T01:13:05.900Z,102062.84
2022-10-31T01:15:33.710Z,102063.20
2022-10-31T01:18:01.734Z,102059.99
2022-10-31T01:20:29.928Z,102059.34
2022-10-31T01:22:57.725Z,102058.48
2022-10-31T01:25:25.451Z,102052.44
2022-10-31T01:27:53.223Z,102048.41
2022-10-31T01:30:21.147Z,102053.62
2022-10-31T01:32:48.851Z,102058.13
2022-10-31T01:35:16.692Z,102051.33
2022-10-31T01:37:49.077Z,102057.41
2022-10-31T01:40:16.879Z,102061.10
2022-10-31T01:42:44.638Z,102056.23
2022-10-31T01:45:12.750Z,102055.02
2022-10-31T01:47:45.839Z,102056.23
2022-10-31T01:50:18.009Z,102047.77
2022-10-31T01:52:47.998Z,102049.27
2022-10-31T01:55:25.217Z,102048.74
2022-10-31T01:57:59.223Z,102048.74
2022-10-31T02:00:27.451Z,102040.34
2022-10-31T02:02:58.206Z,102041.39
2022-10-31T02:05:28.231Z,102045.97
2022-10-31T02:08:02.710Z,102044.79
2022-10-31T02:10:30.535Z,102044.13
2022-10-31T02:13:03.332Z,102040.08
2022-10-31T02:15:32.075Z,102041.81
2022-10-31T02:18:00.202Z,102035.73
2022-10-31T02:20:32.139Z,102039.98
2022-10-31T02:23:18.006Z,102036.09
2022-10-31T02:26:10.089Z,102038.94
2022-10-31T02:28:59.277Z,102033.87
2022-10-31T02:31:53.188Z,102031.68
2022-10-31T02:34:23.485Z,102037.37
2022-10-31T02:36:56.342Z,102032.16
2022-10-31T02:39:32.598Z,102038.87
2022-10-31T02:42:09.499Z,102038.54
2022-10-31T02:44:46.293Z,102030.17
2022-10-31T02:47:15.833Z,102021.90
2022-10-31T02:49:56.875Z,102024.22
2022-10-31T02:52:29.444Z,102029.45
2022-10-31T02:54:57.403Z,102027.43
2022-10-31T02:57:30.615Z,102030.17
2022-10-31T03:00:04.202Z,102030.66
2022-10-31T03:02:54.029Z,102027.49
2022-10-31T03:05:36.912Z,102031.22
2022-10-31T03:08:07.488Z,102022.81
2022-10-31T03:10:38.647Z,102032.76
2022-10-31T03:13:18.475Z,102031.09
2022-10-31T03:15:46.969Z,102031.74
2022-10-31T03:18:23.726Z,102027.36
2022-10-31T03:20:56.858Z,102027.03
2022-10-31T03:23:24.960Z,102037.50
2022-10-31T03:25:53.286Z,102035.27
2022-10-31T03:28:22.413Z,102027.03
2022-10-31T03:30:50.194Z,102025.56
2022-10-31T03:33:20.111Z,102028.41
2022-10-31T03:35:48.985Z,102029.55
2022-10-31T03:38:16.808Z,102028.73
2022-10-31T03:40:45.868Z,102026.38
2022-10-31T03:43:16.584Z,102018.99
2022-10-31T03:45:46.594Z,102026.70
2022-10-31T03:48:15.898Z,102016.15
2022-10-31T03:51:08.117Z,102018.99
2022-10-31T03:53:38.997Z,102013.76
2022-10-31T03:56:12.411Z,102012.62
2022-10-31T03:58:49.930Z,102009.97
2022-10-31T04:01:18.475Z,102017.36
2022-10-31T04:03:46.400Z,102005.91
2022-10-31T04:06:15.873Z,102006.04
2022-10-31T04:08:46.752Z,102010.91
2022-10-31T04:11:14.653Z,102006.56
2022-10-31T04:13:42.442Z,102005.06
2022-10-31T04:16:12.750Z,102005.06
2022-10-31T04:18:43.930Z,102001.37
2022-10-31T04:21:11.817Z,101999.18
2022-10-31T04:23:39.706Z,101996.43
2022-10-31T04:26:07.564Z,101999.63
2022-10-31T04:28:35.897Z,101997.94
2022-10-31T04:31:03.777Z,101993.91
2022-10-31T04:33:31.664Z,101993.03
2022-10-31T04:35:59.434Z,101988.48
2022-10-31T04:38:27.239Z,101981.09
2022-10-31T04:40:55.128Z,101977.07
2022-10-31T04:43:22.999Z,101981.09
2022-10-31T04:45:50.886Z,101983.13
2022-10-31T04:48:18.637Z,101977.07
2022-10-31T04:50:46.451Z,101978.74
2022-10-31T04:53:14.230Z,101986.16
2022-10-31T04:55:42.170Z,101991.88
2022-10-31T04:58:09.972Z,101979.63
2022-10-31T05:00:37.781Z,101972.17
2022-10-31T05:03:05.590Z,101984.27
2022-10-31T05:05:33.577Z,101980.57
2022-10-31T05:08:01.474Z,101982.08
2022-10-31T05:10:30.573Z,101986.10
2022-10-31T05:13:03.052Z,101973.84
2022-10-31T05:15:31.432Z,101985.45
2022-10-31T05:17:59.773Z,101964.06
2022-10-31T05:20:29.755Z,101972.01
2022-10-31T05:22:58.429Z,101968.61
2022-10-31T05:25:28.460Z,101972.01
2022-10-31T05:27:57.060Z,101970.50
2022-10-31T05:30:27.115Z,101964.78
2022-10-31T05:32:55.071Z,101960.76
2022-10-31T05:35:27.622Z,101955.20
2022-10-31T05:37:55.490Z,101962.10
2022-10-31T05:40:23.582Z,101956.38
2022-10-31T05:42:53.435Z,101957.59
2022-10-31T05:45:21.551Z,101959.58
2022-10-31T05:48:07.611Z,101959.38
2022-10-31T05:50:35.386Z,101955.30
2022-10-31T05:53:07.027Z,101948.40
2022-10-31T05:55:34.834Z,101948.89
2022-10-31T05:58:02.996Z,101934.70
2022-10-31T06:00:31.055Z,101950.52
2022-10-31T06:03:02.969Z,101941.08
2022-10-31T06:05:31.444Z,101942.45
2022-10-31T06:07:59.674Z,101940.95
2022-10-31T06:10:27.933Z,101932.38
2022-10-31T06:12:55.847Z,101928.32
2022-10-31T06:15:24.930Z,101933.23
2022-10-31T06:18:03.538Z,101928.32
2022-10-31T06:20:31.951Z,101926.33
2022-10-31T06:23:00.145Z,101945.16
2022-10-31T06:25:28.279Z,101941.30
2022-10-31T06:27:56.994Z,101950.55
2022-10-31T06:30:24.831Z,101951.08
2022-10-31T06:32:52.750Z,101946.08
2022-10-31T06:35:20.666Z,101940.36
2022-10-31T06:37:55.558Z,101951.80
2022-10-31T06:40:23.484Z,101943.33
2022-10-31T06:43:01.447Z,101950.07
2022-10-31T06:45:29.366Z,101951.54
2022-10-31T06:48:15.998Z,101949.51
2022-10-31T06:50:44.205Z,101952.91
2022-10-31T06:53:12.392Z,101957.59
2022-10-31T06:55:43.923Z,101953.80
2022-10-31T06:58:12.447Z,101949.94
2022-10-31T07:00:40.590Z,101944.87
2022-10-31T07:03:12.930Z,101946.21
2022-10-31T07:05:41.293Z,101954.97
2022-10-31T07:08:10.698Z,101954.35
2022-10-31T07:10:40.569Z,101959.74
2022-10-31T07:13:14.955Z,101956.93
2022-10-31T07:15:43.509Z,101963.31
2022-10-31T07:18:12.038Z,101953.01
2022-10-31T07:20:39.844Z,101956.02
2022-10-31T07:23:07.699Z,101953.83
2022-10-31T07:25:35.542Z,101955.49
2022-10-31T07:28:03.839Z,101951.67
2022-10-31T07:30:31.812Z,101959.91
2022-10-31T07:32:59.834Z,101957.16
2022-10-31T07:35:30.019Z,101959.84
2022-10-31T07:37:58.052Z,101961.31
2022-10-31T07:40:26.566Z,101956.54
2022-10-31T07:42:54.878Z,101956.73
2022-10-31T07:45:23.668Z,101963.11
2022-10-31T07:47:53.017Z,101974.72
2022-10-31T07:50:31.204Z,101963.27
2022-10-31T07:53:10.224Z,101971.55
2022-10-31T07:55:38.296Z,101967.46
2022-10-31T07:58:16.748Z,101968.31
2022-10-31T08:00:46.099Z,101968.18
2022-10-31T08:03:15.815Z,101965.30
2022-10-31T08:05:43.829Z,101973.77
2022-10-31T08:08:11.912Z,101965.50
2022-10-31T08:10:39.879Z,101963.83
2022-10-31T08:13:09.422Z,101962.98
2022-10-31T08:15:40.140Z,101965.37
2022-10-31T08:18:08.394Z,101965.89
2022-10-31T08:20:36.323Z,101967.27
2022-10-31T08:23:06.183Z,101964.71
2022-10-31T08:25:38.366Z,101963.70
2022-10-31T08:28:07.235Z,101963.05
2022-10-31T08:30:36.317Z,101966.38
2022-10-31T08:33:15.727Z,101955.95
2022-10-31T08:35:43.977Z,101961.34
2022-10-31T08:38:13.179Z,101957.81
2022-10-31T08:40:41.388Z,101951.99
2022-10-31T08:43:17.946Z,101957.03
2022-10-31T08:45:46.341Z,101950.79
2022-10-31T08:48:15.799Z,101951.99
2022-10-31T08:50:43.757Z,101958.08
2022-10-31T08:53:19.583Z,101946.63
2022-10-31T08:55:48.272Z,101959.78
2022-10-31T08:58:18.125Z,101956.45
2022-10-31T09:00:47.082Z,101955.27
2022-10-31T09:03:20.237Z,101950.91
2022-10-31T09:05:48.439Z,101946.21
2022-10-31T09:08:17.199Z,101944.90
2022-10-31T09:10:45.647Z,101953.34
2022-10-31T09:13:18.505Z,101951.51
2022-10-31T09:15:47.341Z,101944.12
2022-10-31T09:18:17.375Z,101936.53
2022-10-31T09:20:46.635Z,101940.45
2022-10-31T09:23:19.462Z,101936.59
2022-10-31T09:25:50.692Z,101927.51
2022-10-31T09:28:20.747Z,101923.16
2022-10-31T09:30:49.972Z,101916.59
2022-10-31T09:33:18.029Z,101926.36
2022-10-31T09:35:45.969Z,101921.66
2022-10-31T09:38:18.110Z,101919.62
2022-10-31T09:40:47.028Z,101918.48
2022-10-31T09:43:45.744Z,101925.88
2022-10-31T09:46:18.771Z,101920.15
2022-10-31T09:48:52.551Z,101920.84
2022-10-31T09:51:23.083Z,101918.88
2022-10-31T09:54:25.054Z,101929.30
2022-10-31T09:56:52.870Z,101928.32
2022-10-31T09:59:28.074Z,101933.39
2022-10-31T10:02:08.078Z,101920.94
2022-10-31T10:04:46.633Z,101925.15
2022-10-31T10:07:41.846Z,101934.93
2022-10-31T10:10:23.286Z,101937.61
2022-10-31T10:13:18.953Z,101921.46
2022-10-31T10:15:46.685Z,101925.88
2022-10-31T10:18:24.898Z,101920.45
2022-10-31T10:21:07.713Z,101920.45
2022-10-31T10:24:01.940Z,101919.76
2022-10-31T10:26:38.449Z,101905.63
2022-10-31T10:29:13.873Z,101898.54
2022-10-31T10:31:42.741Z,101893.50
2022-10-31T10:34:20.055Z,101890.10
2022-10-31T10:37:00.196Z,101896.05
2022-10-31T10:39:32.284Z,101887.09
2022-10-31T10:42:18.840Z,101893.83
2022-10-31T10:45:07.152Z,101886.08
2022-10-31T10:47:44.759Z,101880.00
2022-10-31T10:50:24.572Z,101880.52
2022-10-31T10:53:05.469Z,101871.07
2022-10-31T10:55:53.375Z,101870.74
2022-10-31T10:58:21.448Z,101869.54
2022-10-31T11:00:50.091Z,101874.44
2022-10-31T11:03:18.853Z,101867.18
2022-10-31T11:05:53.299Z,101863.81
2022-10-31T11:08:30.222Z,101873.07
2022-10-31T11:11:01.186Z,101873.59
2022-10-31T11:13:29.427Z,101859.79
2022-10-31T11:16:02.745Z,101859.11
2022-10-31T11:18:34.088Z,101859.59
2022-10-31T11:21:03.176Z,101855.54
2022-10-31T11:23:31.231Z,101855.05
2022-10-31T11:26:00.984Z,101860.09
2022-10-31T11:28:31.597Z,101860.77
2022-10-31T11:31:07.269Z,101851.32
2022-10-31T11:33:52.014Z,101843.90
2022-10-31T11:36:27.170Z,101832.95
2022-10-31T11:38:55.171Z,101844.06
2022-10-31T11:41:37.010Z,101846.26
2022-10-31T11:44:14.426Z,101840.53
2022-10-31T11:46:43.963Z,101848.77
2022-10-31T11:49:25.327Z,101849.30
2022-10-31T11:51:55.855Z,101837.63
2022-10-31T11:54:28.516Z,101826.64
2022-10-31T11:56:56.363Z,101821.44
2022-10-31T11:59:30.124Z,101829.35
2022-10-31T12:01:59.948Z,101823.23
2022-10-31T12:04:36.760Z,101821.21
2022-10-31T12:07:04.670Z,101820.52
2022-10-31T12:09:36.996Z,101815.16
2022-10-31T12:12:18.393Z,101803.69
2022-10-31T12:15:07.403Z,101808.59
2022-10-31T12:17:53.923Z,101804.21
2022-10-31T12:20:57.812Z,101784.95
2022-10-31T12:23:44.277Z,101788.65
2022-10-31T12:26:35.508Z,101783.74
2022-10-31T12:29:20.581Z,101787.14
2022-10-31T12:32:22.300Z,101777.01
2022-10-31T12:34:59.506Z,101777.79
2022-10-31T12:37:49.268Z,101777.10
2022-10-31T12:40:32.245Z,101772.79
2022-10-31T12:43:08.763Z,101771.88
2022-10-31T12:45:57.415Z,101767.98
2022-10-31T12:49:05.074Z,101764.74
2022-10-31T12:51:58.642Z,101750.36
2022-10-31T12:54:47.028Z,101749.64
2022-10-31T12:57:28.270Z,101732.77
2022-10-31T13:00:01.719Z,101732.54
2022-10-31T13:02:53.145Z,101727.30
2022-10-31T13:05:28.874Z,101721.48
2022-10-31T13:08:21.442Z,101727.02
2022-10-31T13:13:56.002Z,101715.57
2022-10-31T13:16:25.361Z,101711.71
2022-10-31T13:18:54.425Z,101709.72
2022-10-31T13:21:35.538Z,101717.14
2022-10-31T13:24:05.188Z,101708.87
2022-10-31T13:26:48.203Z,101712.10
2022-10-31T13:29:42.184Z,101709.81
2022-10-31T13:32:10.312Z,101700.30
2022-10-31T13:34:55.417Z,101692.29
2022-10-31T13:37:43.870Z,101684.45
2022-10-31T13:40:11.910Z,101680.23
2022-10-31T13:43:03.461Z,101674.99
2022-10-31T13:45:31.547Z,101671.63
2022-10-31T13:48:17.717Z,101668.36
2022-10-31T13:50:57.124Z,101658.77
2022-10-31T13:53:25.179Z,101665.25
2022-10-31T13:56:12.888Z,101669.20
2022-10-31T13:58:40.706Z,101654.33
2022-10-31T14:01:24.445Z,101656.26
2022-10-31T14:04:25.198Z,101663.87
2022-10-31T14:07:15.928Z,101657.86
2022-10-31T14:09:56.708Z,101657.05
2022-10-31T14:12:40.395Z,101654.03
2022-10-31T14:15:19.880Z,101649.33
2022-10-31T14:18:04.643Z,101649.10
2022-10-31T14:20:47.930Z,101655.87
2022-10-31T14:23:36.431Z,101650.96
2022-10-31T14:26:30.459Z,101648.45
2022-10-31T14:29:03.019Z,101647.82
2022-10-31T14:31:42.972Z,101645.17
2022-10-31T14:34:10.624Z,101640.50
2022-10-31T14:36:47.062Z,101640.83
2022-10-31T14:39:24.308Z,101648.84
2022-10-31T14:42:08.127Z,101641.61
2022-10-31T14:44:54.549Z,101635.82
2022-10-31T14:47:31.227Z,101637.69
2022-10-31T14:50:31.342Z,101637.91
2022-10-31T14:52:59.778Z,101627.26
2022-10-31T14:55:27.882Z,101631.64
2022-10-31T14:58:17.810Z,101611.56
2022-10-31T15:00:45.672Z,101619.38
2022-10-31T15:03:18.403Z,101620.91
2022-10-31T15:05:54.070Z,101621.96
2022-10-31T15:08:36.096Z,101614.41
2022-10-31T15:11:18.902Z,101616.99
2022-10-31T15:13:54.296Z,101605.71
2022-10-31T15:16:25.607Z,101597.11
2022-10-31T15:19:06.186Z,101602.15
2022-10-31T15:21:34.113Z,101594.23
2022-10-31T15:24:02.774Z,101602.02
2022-10-31T15:26:35.348Z,101596.85
2022-10-31T15:29:25.418Z,101602.12
2022-10-31T15:31:59.558Z,101609.73
2022-10-31T15:34:44.245Z,101605.16
2022-10-31T15:37:13.910Z,101601.13
2022-10-31T15:39:42.098Z,101596.78
2022-10-31T15:42:24.483Z,101587.17
2022-10-31T15:45:05.240Z,101592.44
2022-10-31T15:47:34.071Z,101587.86
2022-10-31T15:50:02.802Z,101575.92
2022-10-31T15:52:45.236Z,101578.28
2022-10-31T15:55:22.814Z,101576.61
2022-10-31T15:57:52.320Z,101578.15
2022-10-31T16:00:29.789Z,101580.50
2022-10-31T16:03:13.045Z,101576.48
2022-10-31T16:05:46.096Z,101584.42
2022-10-31T16:08:32.237Z,101586.95
2022-10-31T16:11:09.357Z,101580.73
2022-10-31T16:13:39.209Z,101574.62
2022-10-31T16:19:05.158Z,101582.20
2022-10-31T16:21:37.828Z,101577.66
2022-10-31T16:24:13.341Z,101589.33
2022-10-31T16:26:41.138Z,101593.19
2022-10-31T16:29:28.521Z,101593.19
2022-10-31T16:31:56.352Z,101582.92
2022-10-31T16:34:26.846Z,101574.03
2022-10-31T16:36:55.367Z,101579.75
2022-10-31T16:39:23.511Z,101579.95
2022-10-31T16:41:54.058Z,101579.45
2022-10-31T16:44:26.536Z,101580.27
2022-10-31T16:47:15.307Z,101572.88
2022-10-31T16:49:48.582Z,101581.81
2022-10-31T16:52:16.468Z,101576.77
2022-10-31T16:54:44.231Z,101589.91
2022-10-31T16:57:17.925Z,101592.63
2022-10-31T16:59:46.328Z,101594.17
2022-10-31T17:02:18.276Z,101593.32
2022-10-31T17:04:47.606Z,101603.59
2022-10-31T17:07:17.433Z,101597.02
2022-10-31T17:09:45.203Z,101592.30
2022-10-31T17:12:17.362Z,101588.58
2022-10-31T17:14:45.177Z,101593.13
2022-10-31T17:17:12.914Z,101598.35
2022-10-31T17:19:40.840Z,101598.68
2022-10-31T17:22:09.706Z,101600.91
2022-10-31T17:24:37.583Z,101596.52
2022-10-31T17:27:05.598Z,101592.83
2022-10-31T17:29:34.018Z,101580.17
2022-10-31T17:32:03.003Z,101584.23
2022-10-31T17:34:31.061Z,101593.19
2022-10-31T17:36:58.960Z,101585.90
2022-10-31T17:39:26.862Z,101594.17
2022-10-31T17:41:54.694Z,101585.77
2022-10-31T17:44:22.658Z,101590.15
2022-10-31T17:46:50.734Z,101593.68
2022-10-31T17:49:18.809Z,101595.70
2022-10-31T17:51:51.847Z,101586.29
2022-10-31T17:54:23.875Z,101588.48
2022-10-31T17:56:52.297Z,101591.32
2022-10-31T17:59:22.224Z,101587.63
2022-10-31T18:01:52.751Z,101574.84
2022-10-31T18:04:20.819Z,101578.21
2022-10-31T18:06:51.059Z,101583.94
2022-10-31T18:09:19.135Z,101585.11
2022-10-31T18:11:47.256Z,101572.82
2022-10-31T18:14:17.827Z,101593.19
2022-10-31T18:16:46.516Z,101590.67
2022-10-31T18:19:16.041Z,101588.45
2022-10-31T18:21:47.061Z,101582.73
2022-10-31T18:24:15.694Z,101591.03
2022-10-31T18:26:52.527Z,101594.37
2022-10-31T18:29:20.680Z,101586.65
2022-10-31T18:31:54.839Z,101587.79
2022-10-31T18:34:23.700Z,101597.57
2022-10-31T18:36:57.428Z,101602.77
2022-10-31T18:39:26.035Z,101589.98
2022-10-31T18:41:56.326Z,101601.91
2022-10-31T18:44:27.935Z,101600.74
2022-10-31T18:46:59.005Z,101604.47
2022-10-31T18:49:34.011Z,101595.05
2022-10-31T18:52:06.438Z,101595.54
2022-10-31T18:54:34.321Z,101589.33
2022-10-31T18:57:02.538Z,101583.25
2022-10-31T18:59:30.655Z,101585.80
2022-10-31T19:02:03.839Z,101585.80
2022-10-31T19:04:31.882Z,101592.01
2022-10-31T19:06:59.879Z,101595.02
2022-10-31T19:09:28.072Z,101604.80
2022-10-31T19:11:56.096Z,101609.34
2022-10-31T19:14:27.031Z,101614.05
2022-10-31T19:17:02.634Z,101612.87
2022-10-31T19:19:30.688Z,101621.80
2022-10-31T19:21:59.004Z,101618.95
2022-10-31T19:24:26.798Z,101622.12
2022-10-31T19:26:54.676Z,101629.55
2022-10-31T19:29:22.522Z,101636.97
2022-10-31T19:31:50.425Z,101625.00
2022-10-31T19:34:18.535Z,101640.86
2022-10-31T19:36:46.737Z,101640.86
2022-10-31T19:39:14.607Z,101640.86
2022-10-31T19:41:42.795Z,101646.05
2022-10-31T19:44:13.358Z,101655.31
2022-10-31T19:46:54.116Z,101662.41
2022-10-31T19:49:22.528Z,101648.41
2022-10-31T19:51:50.441Z,101661.55
2022-10-31T19:54:18.412Z,101645.08
2022-10-31T19:56:46.277Z,101643.87
2022-10-31T19:59:17.077Z,101645.89
2022-10-31T20:01:45.115Z,101642.36
2022-10-31T20:04:13.072Z,101641.19
2022-10-31T20:06:41.951Z,101638.66
2022-10-31T20:09:14.341Z,101634.62
2022-10-31T20:11:42.954Z,101643.21
2022-10-31T20:14:12.889Z,101640.34
2022-10-31T20:16:41.114Z,101635.13
2022-10-31T20:19:09.033Z,101638.47
2022-10-31T20:21:38.886Z,101638.83
2022-10-31T20:24:08.603Z,101648.41
2022-10-31T20:26:40.897Z,101645.53
2022-10-31T20:29:08.777Z,101649.39
2022-10-31T20:31:37.217Z,101648.74
2022-10-31T20:34:05.593Z,101648.45
2022-10-31T20:36:35.125Z,101654.30
2022-10-31T20:39:03.139Z,101652.27
2022-10-31T20:41:30.917Z,101647.07
2022-10-31T20:43:59.286Z,101646.22
2022-10-31T20:46:27.926Z,101652.11
2022-10-31T20:48:55.875Z,101643.18
2022-10-31T20:51:25.727Z,101642.49
2022-10-31T20:53:54.120Z,101653.25
2022-10-31T20:56:24.140Z,101646.71
2022-10-31T20:58:52.082Z,101652.59
2022-10-31T21:01:28.307Z,101666.88
2022-10-31T21:03:56.253Z,101660.02
2022-10-31T21:06:24.596Z,101653.09
2022-10-31T21:08:52.535Z,101658.32
2022-10-31T21:11:22.503Z,101655.96
2022-10-31T21:13:50.785Z,101662.05
2022-10-31T21:16:23.707Z,101660.02
2022-10-31T21:18:51.798Z,101655.80
2022-10-31T21:21:32.429Z,101653.25
2022-10-31T21:24:03.004Z,101649.91
2022-10-31T21:26:32.642Z,101653.12
2022-10-31T21:29:00.716Z,101644.20
2022-10-31T21:31:29.425Z,101640.83
2022-10-31T21:33:57.315Z,101638.30
2022-10-31T21:36:25.531Z,101643.54
2022-10-31T21:38:53.817Z,101642.69
2022-10-31T21:41:21.852Z,101647.59
2022-10-31T21:43:50.632Z,101649.26
2022-10-31T21:46:23.226Z,101643.18
2022-10-31T21:48:51.116Z,101647.23
2022-10-31T21:51:29.603Z,101659.53
2022-10-31T21:54:16.195Z,101656.65
2022-10-31T21:56:44.167Z,101652.11
2022-10-31T21:59:14.978Z,101648.74
2022-10-31T22:01:42.998Z,101644.20
2022-10-31T22:04:10.927Z,101652.63
2022-10-31T22:06:39.041Z,101650.77
2022-10-31T22:09:07.938Z,101652.79
2022-10-31T22:11:35.972Z,101646.25
2022-10-31T22:14:03.784Z,101639.84
2022-10-31T22:16:31.665Z,101649.78
2022-10-31T22:19:00.585Z,101650.93
2022-10-31T22:21:28.991Z,101643.02
2022-10-31T22:24:03.516Z,101647.07
2022-10-31T22:26:35.369Z,101638.18
2022-10-31T22:29:04.667Z,101649.95
2022-10-31T22:31:32.943Z,101636.80
2022-10-31T22:34:00.939Z,101633.41
2022-10-31T22:36:29.680Z,101630.27
2022-10-31T22:38:57.742Z,101620.49
2022-10-31T22:41:27.270Z,101624.18
2022-10-31T22:43:55.784Z,101635.62
2022-10-31T22:46:25.376Z,101636.80
2022-10-31T22:48:54.894Z,101627.88
2022-10-31T22:51:27.432Z,101632.78
2022-10-31T22:53:57.968Z,101618.59
2022-10-31T22:56:28.031Z,101622.12
2022-10-31T22:58:55.794Z,101630.92
2022-10-31T23:01:25.289Z,101621.66
2022-10-31T23:03:53.128Z,101629.94
2022-10-31T23:06:22.566Z,101625.72
2022-10-31T23:08:51.473Z,101615.78
2022-10-31T23:11:27.349Z,101625.20
2022-10-31T23:14:14.586Z,101635.30
2022-10-31T23:16:55.972Z,101646.91
2022-10-31T23:19:26.440Z,101647.76
2022-10-31T23:21:55.901Z,101642.72
2022-10-31T23:24:39.062Z,101654.33
2022-10-31T23:27:14.000Z,101650.96
2022-10-31T23:29:52.294Z,101646.91
2022-10-31T23:32:21.772Z,101661.72
2022-10-31T23:34:51.165Z,101648.77
2022-10-31T23:37:19.608Z,101652.30
2022-10-31T23:39:47.459Z,101655.48
2022-10-31T23:42:15.427Z,101666.27
2022-10-31T23:44:43.272Z,101650.63
2022-10-31T23:47:11.087Z,101654.33
2022-10-31T23:49:38.917Z,101646.58
2022-10-31T23:52:06.949Z,101640.50
2022-10-31T23:54:34.844Z,101648.61
2022-10-31T23:57:02.947Z,101634.98
2022-10-31T23:59:30.751Z,101637.82
